sensor_id;sensor_type;location;lat;lon;timestamp;temperature;humidity
53286;DHT22;39171;45.550;12.074;2022-12-08T00:03:58;15.70;62.60
53286;DHT22;39171;45.550;12.074;2022-12-08T00:10:00;15.60;62.60
53286;DHT22;39171;45.550;12.074;2022-12-08T00:16:01;15.60;62.60
53286;DHT22;39171;45.550;12.074;2022-12-08T00:22:03;15.60;62.50
53286;DHT22;39171;45.550;12.074;2022-12-08T00:28:05;15.50;62.50
53286;DHT22;39171;45.550;12.074;2022-12-08T00:34:06;15.50;62.60
53286;DHT22;39171;45.550;12.074;2022-12-08T00:40:08;15.50;63.00
53286;DHT22;39171;45.550;12.074;2022-12-08T00:46:10;15.40;62.70
53286;DHT22;39171;45.550;12.074;2022-12-08T00:52:12;15.40;62.80
53286;DHT22;39171;45.550;12.074;2022-12-08T00:58:14;15.40;62.90
53286;DHT22;39171;45.550;12.074;2022-12-08T01:04:17;15.30;62.80
53286;DHT22;39171;45.550;12.074;2022-12-08T01:10:19;15.30;62.80
53286;DHT22;39171;45.550;12.074;2022-12-08T01:16:25;15.30;63.20
53286;DHT22;39171;45.550;12.074;2022-12-08T01:22:27;15.20;64.00
53286;DHT22;39171;45.550;12.074;2022-12-08T01:28:29;15.20;64.40
53286;DHT22;39171;45.550;12.074;2022-12-08T01:34:30;15.20;63.90
53286;DHT22;39171;45.550;12.074;2022-12-08T01:40:32;15.20;63.70
53286;DHT22;39171;45.550;12.074;2022-12-08T01:46:36;15.20;63.70
53286;DHT22;39171;45.550;12.074;2022-12-08T01:52:47;15.10;64.20
53286;DHT22;39171;45.550;12.074;2022-12-08T01:58:52;15.00;64.40
53286;DHT22;39171;45.550;12.074;2022-12-08T02:04:54;15.00;64.10
53286;DHT22;39171;45.550;12.074;2022-12-08T02:10:56;15.00;64.40
53286;DHT22;39171;45.550;12.074;2022-12-08T02:17:12;15.00;64.50
53286;DHT22;39171;45.550;12.074;2022-12-08T02:23:34;15.00;64.50
53286;DHT22;39171;45.550;12.074;2022-12-08T02:35:57;14.90;64.40
53286;DHT22;39171;45.550;12.074;2022-12-08T02:42:31;14.90;64.50
53286;DHT22;39171;45.550;12.074;2022-12-08T02:48:37;14.80;64.40
53286;DHT22;39171;45.550;12.074;2022-12-08T02:54:42;14.80;64.50
53286;DHT22;39171;45.550;12.074;2022-12-08T03:01:06;14.80;65.10
53286;DHT22;39171;45.550;12.074;2022-12-08T03:07:26;14.70;65.40
53286;DHT22;39171;45.550;12.074;2022-12-08T03:13:37;14.70;65.10
53286;DHT22;39171;45.550;12.074;2022-12-08T03:19:41;14.70;64.60
53286;DHT22;39171;45.550;12.074;2022-12-08T03:25:56;14.70;65.50
53286;DHT22;39171;45.550;12.074;2022-12-08T03:32:13;14.70;65.30
53286;DHT22;39171;45.550;12.074;2022-12-08T03:38:16;14.70;64.90
53286;DHT22;39171;45.550;12.074;2022-12-08T03:44:18;14.60;65.20
53286;DHT22;39171;45.550;12.074;2022-12-08T03:50:19;14.60;65.30
53286;DHT22;39171;45.550;12.074;2022-12-08T03:56:34;14.60;65.60
53286;DHT22;39171;45.550;12.074;2022-12-08T04:02:35;14.60;65.60
53286;DHT22;39171;45.550;12.074;2022-12-08T04:08:37;14.50;65.10
53286;DHT22;39171;45.550;12.074;2022-12-08T04:14:39;14.50;65.20
53286;DHT22;39171;45.550;12.074;2022-12-08T04:20:41;14.50;65.40
53286;DHT22;39171;45.550;12.074;2022-12-08T04:26:43;14.40;65.10
53286;DHT22;39171;45.550;12.074;2022-12-08T04:32:46;14.40;64.90
53286;DHT22;39171;45.550;12.074;2022-12-08T04:38:48;14.30;65.90
53286;DHT22;39171;45.550;12.074;2022-12-08T04:44:49;14.30;65.80
53286;DHT22;39171;45.550;12.074;2022-12-08T04:50:50;14.30;65.60
53286;DHT22;39171;45.550;12.074;2022-12-08T04:56:52;14.30;65.40
53286;DHT22;39171;45.550;12.074;2022-12-08T05:02:54;14.20;65.40
53286;DHT22;39171;45.550;12.074;2022-12-08T05:08:55;14.20;66.00
53286;DHT22;39171;45.550;12.074;2022-12-08T05:14:59;14.20;66.10
53286;DHT22;39171;45.550;12.074;2022-12-08T05:21:01;14.20;65.80
53286;DHT22;39171;45.550;12.074;2022-12-08T05:27:03;14.20;65.90
53286;DHT22;39171;45.550;12.074;2022-12-08T05:33:04;14.20;66.30
53286;DHT22;39171;45.550;12.074;2022-12-08T05:39:05;14.20;66.00
53286;DHT22;39171;45.550;12.074;2022-12-08T05:45:07;14.10;66.30
53286;DHT22;39171;45.550;12.074;2022-12-08T05:51:19;14.10;66.20
53286;DHT22;39171;45.550;12.074;2022-12-08T05:57:21;14.00;66.10
53286;DHT22;39171;45.550;12.074;2022-12-08T06:03:22;14.00;66.20
53286;DHT22;39171;45.550;12.074;2022-12-08T06:09:23;14.00;66.70
53286;DHT22;39171;45.550;12.074;2022-12-08T06:15:25;14.00;66.70
53286;DHT22;39171;45.550;12.074;2022-12-08T06:21:26;14.00;66.90
53286;DHT22;39171;45.550;12.074;2022-12-08T06:27:28;14.00;66.50
53286;DHT22;39171;45.550;12.074;2022-12-08T06:33:29;13.90;67.10
53286;DHT22;39171;45.550;12.074;2022-12-08T06:39:31;13.90;66.80
53286;DHT22;39171;45.550;12.074;2022-12-08T06:45:32;13.90;67.70
53286;DHT22;39171;45.550;12.074;2022-12-08T06:51:33;13.80;67.60
53286;DHT22;39171;45.550;12.074;2022-12-08T06:57:38;13.90;67.70
53286;DHT22;39171;45.550;12.074;2022-12-08T07:03:40;13.80;67.60
53286;DHT22;39171;45.550;12.074;2022-12-08T07:09:43;13.80;67.10
53286;DHT22;39171;45.550;12.074;2022-12-08T07:15:45;13.70;67.50
53286;DHT22;39171;45.550;12.074;2022-12-08T07:21:49;13.80;67.90
53286;DHT22;39171;45.550;12.074;2022-12-08T07:28:00;13.70;67.60
53286;DHT22;39171;45.550;12.074;2022-12-08T07:34:02;13.70;67.80
53286;DHT22;39171;45.550;12.074;2022-12-08T07:40:05;13.70;68.00
53286;DHT22;39171;45.550;12.074;2022-12-08T07:46:07;13.70;67.50
53286;DHT22;39171;45.550;12.074;2022-12-08T07:52:08;13.70;67.10
53286;DHT22;39171;45.550;12.074;2022-12-08T07:58:10;13.70;66.80
53286;DHT22;39171;45.550;12.074;2022-12-08T08:04:11;13.60;67.00
53286;DHT22;39171;45.550;12.074;2022-12-08T08:10:13;13.60;67.60
53286;DHT22;39171;45.550;12.074;2022-12-08T08:16:14;13.50;68.00
53286;DHT22;39171;45.550;12.074;2022-12-08T08:22:16;13.60;68.30
53286;DHT22;39171;45.550;12.074;2022-12-08T08:28:17;13.50;68.20
53286;DHT22;39171;45.550;12.074;2022-12-08T08:34:20;13.50;68.40
53286;DHT22;39171;45.550;12.074;2022-12-08T08:40:21;13.50;68.00
53286;DHT22;39171;45.550;12.074;2022-12-08T08:46:23;13.50;68.60
53286;DHT22;39171;45.550;12.074;2022-12-08T08:52:24;13.50;68.20
53286;DHT22;39171;45.550;12.074;2022-12-08T08:58:26;13.50;67.70
53286;DHT22;39171;45.550;12.074;2022-12-08T09:04:27;13.50;68.30
53286;DHT22;39171;45.550;12.074;2022-12-08T09:10:28;13.50;67.80
53286;DHT22;39171;45.550;12.074;2022-12-08T09:16:30;13.40;68.20
53286;DHT22;39171;45.550;12.074;2022-12-08T09:22:32;13.40;68.10
53286;DHT22;39171;45.550;12.074;2022-12-08T09:28:35;13.40;68.40
53286;DHT22;39171;45.550;12.074;2022-12-08T09:34:36;13.40;68.20
53286;DHT22;39171;45.550;12.074;2022-12-08T09:40:52;13.40;67.60
53286;DHT22;39171;45.550;12.074;2022-12-08T09:47:00;13.40;68.00
53286;DHT22;39171;45.550;12.074;2022-12-08T09:53:24;13.40;67.70
53286;DHT22;39171;45.550;12.074;2022-12-08T09:59:33;13.40;67.50
53286;DHT22;39171;45.550;12.074;2022-12-08T10:05:37;13.40;67.20
53286;DHT22;39171;45.550;12.074;2022-12-08T10:18:24;13.40;67.50
53286;DHT22;39171;45.550;12.074;2022-12-08T10:24:43;13.50;67.30
53286;DHT22;39171;45.550;12.074;2022-12-08T10:30:46;13.40;67.40
53286;DHT22;39171;45.550;12.074;2022-12-08T10:36:52;13.40;67.80
53286;DHT22;39171;45.550;12.074;2022-12-08T10:43:18;13.40;67.80
53286;DHT22;39171;45.550;12.074;2022-12-08T10:49:24;13.40;68.00
53286;DHT22;39171;45.550;12.074;2022-12-08T10:55:28;13.40;67.90
53286;DHT22;39171;45.550;12.074;2022-12-08T11:01:36;13.40;68.10
53286;DHT22;39171;45.550;12.074;2022-12-08T11:07:46;13.50;68.00
53286;DHT22;39171;45.550;12.074;2022-12-08T11:13:50;13.40;67.90
53286;DHT22;39171;45.550;12.074;2022-12-08T11:26:09;13.50;68.30
53286;DHT22;39171;45.550;12.074;2022-12-08T11:32:13;13.50;68.10
53286;DHT22;39171;45.550;12.074;2022-12-08T11:38:17;13.50;68.60
53286;DHT22;39171;45.550;12.074;2022-12-08T11:44:46;13.50;68.50
53286;DHT22;39171;45.550;12.074;2022-12-08T11:51:02;13.50;68.10
53286;DHT22;39171;45.550;12.074;2022-12-08T11:57:19;13.50;68.10
53286;DHT22;39171;45.550;12.074;2022-12-08T12:03:29;13.50;68.50
53286;DHT22;39171;45.550;12.074;2022-12-08T12:09:57;13.50;67.90
53286;DHT22;39171;45.550;12.074;2022-12-08T12:16:52;13.50;68.20
53286;DHT22;39171;45.550;12.074;2022-12-08T12:23:09;13.50;68.50
53286;DHT22;39171;45.550;12.074;2022-12-08T12:29:20;13.50;68.40
53286;DHT22;39171;45.550;12.074;2022-12-08T12:35:36;13.60;68.20
53286;DHT22;39171;45.550;12.074;2022-12-08T12:42:01;13.50;68.20
53286;DHT22;39171;45.550;12.074;2022-12-08T12:48:23;13.50;67.60
53286;DHT22;39171;45.550;12.074;2022-12-08T12:54:31;13.50;67.30
53286;DHT22;39171;45.550;12.074;2022-12-08T13:00:38;13.50;67.80
53286;DHT22;39171;45.550;12.074;2022-12-08T13:07:01;13.50;67.50
53286;DHT22;39171;45.550;12.074;2022-12-08T13:19:36;13.50;66.80
53286;DHT22;39171;45.550;12.074;2022-12-08T13:26:22;13.50;67.10
53286;DHT22;39171;45.550;12.074;2022-12-08T13:32:53;13.50;67.30
53286;DHT22;39171;45.550;12.074;2022-12-08T13:38:57;13.50;67.40
53286;DHT22;39171;45.550;12.074;2022-12-08T13:51:16;13.50;67.40
53286;DHT22;39171;45.550;12.074;2022-12-08T13:57:28;13.50;67.60
53286;DHT22;39171;45.550;12.074;2022-12-08T14:03:30;13.50;67.60
53286;DHT22;39171;45.550;12.074;2022-12-08T14:09:36;13.50;67.40
53286;DHT22;39171;45.550;12.074;2022-12-08T14:15:38;13.50;67.20
53286;DHT22;39171;45.550;12.074;2022-12-08T14:22:14;13.40;67.10
53286;DHT22;39171;45.550;12.074;2022-12-08T14:29:00;13.50;67.30
53286;DHT22;39171;45.550;12.074;2022-12-08T14:41:12;13.50;67.20
53286;DHT22;39171;45.550;12.074;2022-12-08T14:47:18;13.50;67.20
53286;DHT22;39171;45.550;12.074;2022-12-08T14:53:21;13.40;67.20
53286;DHT22;39171;45.550;12.074;2022-12-08T14:59:28;13.40;67.50
53286;DHT22;39171;45.550;12.074;2022-12-08T15:05:31;13.40;67.50
53286;DHT22;39171;45.550;12.074;2022-12-08T15:11:34;13.40;67.50
53286;DHT22;39171;45.550;12.074;2022-12-08T15:17:41;13.40;67.60
53286;DHT22;39171;45.550;12.074;2022-12-08T15:23:45;13.40;67.60
53286;DHT22;39171;45.550;12.074;2022-12-08T15:29:49;13.40;67.70
53286;DHT22;39171;45.550;12.074;2022-12-08T15:35:51;13.30;67.60
53286;DHT22;39171;45.550;12.074;2022-12-08T15:41:52;13.30;67.80
53286;DHT22;39171;45.550;12.074;2022-12-08T15:47:54;13.30;67.80
53286;DHT22;39171;45.550;12.074;2022-12-08T15:53:56;13.30;67.80
53286;DHT22;39171;45.550;12.074;2022-12-08T15:59:57;13.30;67.80
53286;DHT22;39171;45.550;12.074;2022-12-08T16:05:59;13.30;67.80
53286;DHT22;39171;45.550;12.074;2022-12-08T16:12:02;13.30;67.90
53286;DHT22;39171;45.550;12.074;2022-12-08T16:18:26;13.20;67.90
53286;DHT22;39171;45.550;12.074;2022-12-08T16:24:28;13.20;68.00
53286;DHT22;39171;45.550;12.074;2022-12-08T16:30:29;13.20;68.00
53286;DHT22;39171;45.550;12.074;2022-12-08T16:36:31;13.20;68.00
53286;DHT22;39171;45.550;12.074;2022-12-08T16:42:33;13.20;68.10
53286;DHT22;39171;45.550;12.074;2022-12-08T16:48:43;13.20;68.20
53286;DHT22;39171;45.550;12.074;2022-12-08T16:54:44;13.20;68.20
53286;DHT22;39171;45.550;12.074;2022-12-08T17:00:46;13.10;68.40
53286;DHT22;39171;45.550;12.074;2022-12-08T17:06:47;13.10;68.40
53286;DHT22;39171;45.550;12.074;2022-12-08T17:12:53;13.10;68.40
53286;DHT22;39171;45.550;12.074;2022-12-08T17:18:55;13.10;68.40
53286;DHT22;39171;45.550;12.074;2022-12-08T17:24:56;13.10;68.50
53286;DHT22;39171;45.550;12.074;2022-12-08T17:30:58;13.10;68.50
53286;DHT22;39171;45.550;12.074;2022-12-08T17:37:00;13.00;68.60
53286;DHT22;39171;45.550;12.074;2022-12-08T17:43:01;13.00;68.70
53286;DHT22;39171;45.550;12.074;2022-12-08T17:49:10;13.00;68.70
53286;DHT22;39171;45.550;12.074;2022-12-08T17:55:12;13.00;68.70
53286;DHT22;39171;45.550;12.074;2022-12-08T18:01:13;12.90;68.70
53286;DHT22;39171;45.550;12.074;2022-12-08T18:07:15;12.90;68.70
53286;DHT22;39171;45.550;12.074;2022-12-08T18:13:20;12.90;68.70
53286;DHT22;39171;45.550;12.074;2022-12-08T18:19:22;12.80;68.80
53286;DHT22;39171;45.550;12.074;2022-12-08T18:25:23;12.80;68.80
53286;DHT22;39171;45.550;12.074;2022-12-08T18:31:29;12.80;68.90
53286;DHT22;39171;45.550;12.074;2022-12-08T18:37:32;12.80;68.90
53286;DHT22;39171;45.550;12.074;2022-12-08T18:43:34;12.80;68.90
53286;DHT22;39171;45.550;12.074;2022-12-08T18:49:36;12.70;68.90
53286;DHT22;39171;45.550;12.074;2022-12-08T19:03:20;12.80;69.00
53286;DHT22;39171;45.550;12.074;2022-12-08T19:09:22;12.70;69.00
53286;DHT22;39171;45.550;12.074;2022-12-08T19:15:26;12.70;69.10
53286;DHT22;39171;45.550;12.074;2022-12-08T19:21:28;12.70;69.00
53286;DHT22;39171;45.550;12.074;2022-12-08T19:27:41;12.70;69.10
53286;DHT22;39171;45.550;12.074;2022-12-08T19:34:21;12.70;69.10
53286;DHT22;39171;45.550;12.074;2022-12-08T19:40:22;12.70;69.10
53286;DHT22;39171;45.550;12.074;2022-12-08T19:46:43;12.70;69.20
53286;DHT22;39171;45.550;12.074;2022-12-08T19:52:47;12.70;69.20
53286;DHT22;39171;45.550;12.074;2022-12-08T19:58:48;12.70;69.20
53286;DHT22;39171;45.550;12.074;2022-12-08T20:04:50;12.70;69.30
53286;DHT22;39171;45.550;12.074;2022-12-08T20:10:51;12.70;69.30
53286;DHT22;39171;45.550;12.074;2022-12-08T20:16:55;12.70;69.40
53286;DHT22;39171;45.550;12.074;2022-12-08T20:22:57;12.70;69.40
53286;DHT22;39171;45.550;12.074;2022-12-08T20:28:58;12.60;69.40
53286;DHT22;39171;45.550;12.074;2022-12-08T20:35:00;12.70;69.40
53286;DHT22;39171;45.550;12.074;2022-12-08T20:51:44;12.60;69.40
53286;DHT22;39171;45.550;12.074;2022-12-08T20:57:46;12.60;69.50
53286;DHT22;39171;45.550;12.074;2022-12-08T21:03:49;12.60;69.50
53286;DHT22;39171;45.550;12.074;2022-12-08T21:09:51;12.60;69.50
53286;DHT22;39171;45.550;12.074;2022-12-08T21:15:55;12.60;69.50
53286;DHT22;39171;45.550;12.074;2022-12-08T21:21:57;12.60;69.70
53286;DHT22;39171;45.550;12.074;2022-12-08T21:28:01;12.60;69.70
53286;DHT22;39171;45.550;12.074;2022-12-08T21:34:04;12.50;69.70
53286;DHT22;39171;45.550;12.074;2022-12-08T21:40:07;12.50;69.60
53286;DHT22;39171;45.550;12.074;2022-12-08T21:46:15;12.60;69.60
53286;DHT22;39171;45.550;12.074;2022-12-08T21:52:19;12.50;69.60
53286;DHT22;39171;45.550;12.074;2022-12-08T21:58:20;12.50;69.60
53286;DHT22;39171;45.550;12.074;2022-12-08T22:04:24;12.50;69.50
53286;DHT22;39171;45.550;12.074;2022-12-08T22:10:26;12.50;69.70
53286;DHT22;39171;45.550;12.074;2022-12-08T22:16:27;12.50;69.70
53286;DHT22;39171;45.550;12.074;2022-12-08T22:22:34;12.50;69.70
53286;DHT22;39171;45.550;12.074;2022-12-08T22:28:38;12.50;69.80
53286;DHT22;39171;45.550;12.074;2022-12-08T22:34:44;12.50;69.80
53286;DHT22;39171;45.550;12.074;2022-12-08T22:40:50;12.50;69.70
53286;DHT22;39171;45.550;12.074;2022-12-08T22:46:52;12.50;69.80
53286;DHT22;39171;45.550;12.074;2022-12-08T22:52:59;12.50;69.80
53286;DHT22;39171;45.550;12.074;2022-12-08T22:59:00;12.50;69.80
53286;DHT22;39171;45.550;12.074;2022-12-08T23:05:03;12.50;69.80
53286;DHT22;39171;45.550;12.074;2022-12-08T23:11:05;12.50;69.80
53286;DHT22;39171;45.550;12.074;2022-12-08T23:17:06;12.40;69.80
53286;DHT22;39171;45.550;12.074;2022-12-08T23:23:07;12.40;70.00
53286;DHT22;39171;45.550;12.074;2022-12-08T23:29:09;12.40;70.00
53286;DHT22;39171;45.550;12.074;2022-12-08T23:35:10;12.40;70.00
53286;DHT22;39171;45.550;12.074;2022-12-08T23:41:13;12.40;70.10
53286;DHT22;39171;45.550;12.074;2022-12-08T23:47:14;12.40;70.10
53286;DHT22;39171;45.550;12.074;2022-12-08T23:53:16;12.40;70.30
53286;DHT22;39171;45.550;12.074;2022-12-08T23:59:17;12.40;70.40
